Etusivu
METAR-TAF:

METAR-TAF

Lentoasemat :

Saint-Brieuc, Ranska

Leveyspiiri: 48-32N, Pituuspiiri: 002-51W, korkeus merenpinnasta: 138 m

Tämänhetkinen sää

Tämä raportti tehtiin 7 tuntia ja 57 minuuttia sitten, kello 22.00 UTC
Tuuli 2 kn eri suunnista
Lämpötila 8°C
Kosteus 93%
Ilmanpaine 1032 hPa
Näkyvyys: 6000 m

METAR: LFRT 232200Z AUTO VRB02KT 6000 NSC 08/07 Q1032

Aika: 06:57 (05:57 UTC)


TAF: puuttuu

Säähavainnot ja -ennusteet yli 4000 lentoasemalta (METAR- ja TAF-raportit).

Käytössä olevat sääasemat on merkitty karttaan keltaisilla ja punaisilla pisteillä.

Aseta hiiri pisteen päälle nähdäksesi sääaseman nimen.

Klikkaa sitten nähdäksesi säähavainnot ja -ennusteet.

Kartan vaihtaminen: klikkaa mustalla rastilla varustettuja vihreitä pisteitä, niin voit zoomata sisään; viivalla varustettua vihreää pistettä, niin voit zoomata ulos tai vihreitä nuolia, niin pääset viereisille kartoille.


METAR-TAF: